sensor_id;sensor_type;location;lat;lon;timestamp;P1;durP1;ratioP1;P2;durP2;ratioP2
4839;SDS011;2434;48.486;7.964;2022-12-07T00:01:27;23.03;;;15.93;;
4839;SDS011;2434;48.486;7.964;2022-12-07T00:03:58;29.67;;;16.40;;
4839;SDS011;2434;48.486;7.964;2022-12-07T00:06:31;23.50;;;16.50;;
4839;SDS011;2434;48.486;7.964;2022-12-07T00:09:00;24.83;;;16.97;;
4839;SDS011;2434;48.486;7.964;2022-12-07T00:11:28;31.03;;;15.70;;
4839;SDS011;2434;48.486;7.964;2022-12-07T00:13:57;24.30;;;16.10;;
4839;SDS011;2434;48.486;7.964;2022-12-07T00:16:27;24.67;;;16.97;;
4839;SDS011;2434;48.486;7.964;2022-12-07T00:18:58;22.33;;;16.20;;
4839;SDS011;2434;48.486;7.964;2022-12-07T00:21:28;27.73;;;15.70;;
4839;SDS011;2434;48.486;7.964;2022-12-07T00:23:57;27.50;;;17.03;;
4839;SDS011;2434;48.486;7.964;2022-12-07T00:26:26;24.90;;;16.40;;
4839;SDS011;2434;48.486;7.964;2022-12-07T00:28:59;23.07;;;16.03;;
4839;SDS011;2434;48.486;7.964;2022-12-07T00:31:29;26.33;;;14.87;;
4839;SDS011;2434;48.486;7.964;2022-12-07T00:34:01;23.03;;;15.37;;
4839;SDS011;2434;48.486;7.964;2022-12-07T00:36:29;26.37;;;15.60;;
4839;SDS011;2434;48.486;7.964;2022-12-07T00:38:57;27.77;;;18.33;;
4839;SDS011;2434;48.486;7.964;2022-12-07T00:41:27;21.93;;;14.43;;
4839;SDS011;2434;48.486;7.964;2022-12-07T00:43:56;23.17;;;15.30;;
4839;SDS011;2434;48.486;7.964;2022-12-07T00:46:24;25.00;;;16.53;;
4839;SDS011;2434;48.486;7.964;2022-12-07T00:48:53;21.60;;;14.43;;
4839;SDS011;2434;48.486;7.964;2022-12-07T00:51:24;23.00;;;15.30;;
4839;SDS011;2434;48.486;7.964;2022-12-07T00:53:52;24.40;;;16.60;;
4839;SDS011;2434;48.486;7.964;2022-12-07T00:56:21;20.53;;;15.07;;
4839;SDS011;2434;48.486;7.964;2022-12-07T00:58:52;22.30;;;15.10;;
4839;SDS011;2434;48.486;7.964;2022-12-07T01:01:22;23.20;;;17.07;;
4839;SDS011;2434;48.486;7.964;2022-12-07T01:03:51;20.50;;;14.80;;
4839;SDS011;2434;48.486;7.964;2022-12-07T01:06:20;22.20;;;16.50;;
4839;SDS011;2434;48.486;7.964;2022-12-07T01:08:51;21.77;;;14.77;;
4839;SDS011;2434;48.486;7.964;2022-12-07T01:11:20;26.67;;;15.47;;
4839;SDS011;2434;48.486;7.964;2022-12-07T01:13:50;20.67;;;14.93;;
4839;SDS011;2434;48.486;7.964;2022-12-07T01:16:19;25.37;;;16.93;;
4839;SDS011;2434;48.486;7.964;2022-12-07T01:18:50;23.30;;;15.77;;
4839;SDS011;2434;48.486;7.964;2022-12-07T01:21:19;25.03;;;16.00;;
4839;SDS011;2434;48.486;7.964;2022-12-07T01:23:50;20.07;;;15.03;;
4839;SDS011;2434;48.486;7.964;2022-12-07T01:26:19;21.20;;;15.33;;
4839;SDS011;2434;48.486;7.964;2022-12-07T01:28:50;21.83;;;14.57;;
4839;SDS011;2434;48.486;7.964;2022-12-07T01:31:21;24.83;;;15.70;;
4839;SDS011;2434;48.486;7.964;2022-12-07T01:33:52;20.10;;;14.93;;
4839;SDS011;2434;48.486;7.964;2022-12-07T01:36:22;22.70;;;14.40;;
4839;SDS011;2434;48.486;7.964;2022-12-07T01:38:54;24.80;;;15.10;;
4839;SDS011;2434;48.486;7.964;2022-12-07T01:41:24;19.80;;;14.10;;
4839;SDS011;2434;48.486;7.964;2022-12-07T01:44:10;24.33;;;16.47;;
4839;SDS011;2434;48.486;7.964;2022-12-07T01:46:45;19.67;;;14.37;;
4839;SDS011;2434;48.486;7.964;2022-12-07T01:49:16;25.17;;;14.77;;
4839;SDS011;2434;48.486;7.964;2022-12-07T01:51:48;20.33;;;14.20;;
4839;SDS011;2434;48.486;7.964;2022-12-07T01:54:21;27.63;;;16.33;;
4839;SDS011;2434;48.486;7.964;2022-12-07T01:56:50;22.47;;;13.80;;
4839;SDS011;2434;48.486;7.964;2022-12-07T01:59:21;22.87;;;16.00;;
4839;SDS011;2434;48.486;7.964;2022-12-07T02:01:52;21.60;;;14.60;;
4839;SDS011;2434;48.486;7.964;2022-12-07T02:04:21;21.17;;;14.63;;
4839;SDS011;2434;48.486;7.964;2022-12-07T02:06:50;21.90;;;14.67;;
4839;SDS011;2434;48.486;7.964;2022-12-07T02:09:21;21.00;;;14.63;;
4839;SDS011;2434;48.486;7.964;2022-12-07T02:11:49;22.10;;;13.80;;
4839;SDS011;2434;48.486;7.964;2022-12-07T02:14:18;24.17;;;15.07;;
4839;SDS011;2434;48.486;7.964;2022-12-07T02:16:48;24.70;;;15.60;;
4839;SDS011;2434;48.486;7.964;2022-12-07T02:19:39;27.40;;;16.03;;
4839;SDS011;2434;48.486;7.964;2022-12-07T02:22:41;22.87;;;14.87;;
4839;SDS011;2434;48.486;7.964;2022-12-07T02:25:54;28.23;;;14.33;;
4839;SDS011;2434;48.486;7.964;2022-12-07T02:28:45;19.33;;;13.80;;
4839;SDS011;2434;48.486;7.964;2022-12-07T02:31:28;20.47;;;14.87;;
4839;SDS011;2434;48.486;7.964;2022-12-07T02:34:00;21.00;;;14.00;;
4839;SDS011;2434;48.486;7.964;2022-12-07T02:36:36;20.80;;;14.30;;
4839;SDS011;2434;48.486;7.964;2022-12-07T02:39:11;24.33;;;15.37;;
4839;SDS011;2434;48.486;7.964;2022-12-07T02:41:46;22.00;;;16.07;;
4839;SDS011;2434;48.486;7.964;2022-12-07T02:44:19;26.20;;;16.53;;
4839;SDS011;2434;48.486;7.964;2022-12-07T02:46:51;24.60;;;16.50;;
4839;SDS011;2434;48.486;7.964;2022-12-07T02:49:22;24.30;;;16.50;;
4839;SDS011;2434;48.486;7.964;2022-12-07T02:51:52;24.30;;;17.03;;
4839;SDS011;2434;48.486;7.964;2022-12-07T02:54:21;22.83;;;15.57;;
4839;SDS011;2434;48.486;7.964;2022-12-07T02:56:50;23.13;;;16.47;;
4839;SDS011;2434;48.486;7.964;2022-12-07T02:59:28;26.57;;;17.37;;
4839;SDS011;2434;48.486;7.964;2022-12-07T03:02:10;29.67;;;18.63;;
4839;SDS011;2434;48.486;7.964;2022-12-07T03:04:50;30.00;;;19.63;;
4839;SDS011;2434;48.486;7.964;2022-12-07T03:07:29;27.60;;;18.63;;
4839;SDS011;2434;48.486;7.964;2022-12-07T03:10:09;29.93;;;18.80;;
4839;SDS011;2434;48.486;7.964;2022-12-07T03:12:45;30.93;;;18.50;;
4839;SDS011;2434;48.486;7.964;2022-12-07T03:15:23;28.57;;;17.90;;
4839;SDS011;2434;48.486;7.964;2022-12-07T03:17:55;27.07;;;17.30;;
4839;SDS011;2434;48.486;7.964;2022-12-07T03:20:25;27.43;;;16.30;;
4839;SDS011;2434;48.486;7.964;2022-12-07T03:22:56;24.43;;;16.70;;
4839;SDS011;2434;48.486;7.964;2022-12-07T03:25:26;26.10;;;16.40;;
4839;SDS011;2434;48.486;7.964;2022-12-07T03:27:57;25.20;;;17.13;;
4839;SDS011;2434;48.486;7.964;2022-12-07T03:30:32;25.30;;;16.60;;
4839;SDS011;2434;48.486;7.964;2022-12-07T03:33:07;23.33;;;15.40;;
4839;SDS011;2434;48.486;7.964;2022-12-07T03:35:42;21.07;;;14.23;;
4839;SDS011;2434;48.486;7.964;2022-12-07T03:38:13;31.00;;;15.10;;
4839;SDS011;2434;48.486;7.964;2022-12-07T03:40:47;23.87;;;14.70;;
4839;SDS011;2434;48.486;7.964;2022-12-07T03:43:18;25.97;;;15.30;;
4839;SDS011;2434;48.486;7.964;2022-12-07T03:45:51;23.17;;;15.17;;
4839;SDS011;2434;48.486;7.964;2022-12-07T03:48:31;22.73;;;15.77;;
4839;SDS011;2434;48.486;7.964;2022-12-07T03:51:05;22.07;;;14.10;;
4839;SDS011;2434;48.486;7.964;2022-12-07T03:53:36;26.43;;;16.20;;
4839;SDS011;2434;48.486;7.964;2022-12-07T03:56:08;22.23;;;14.93;;
4839;SDS011;2434;48.486;7.964;2022-12-07T03:58:38;23.73;;;16.23;;
4839;SDS011;2434;48.486;7.964;2022-12-07T04:01:08;29.43;;;16.47;;
4839;SDS011;2434;48.486;7.964;2022-12-07T04:03:37;28.40;;;16.07;;
4839;SDS011;2434;48.486;7.964;2022-12-07T04:06:05;25.57;;;15.90;;
4839;SDS011;2434;48.486;7.964;2022-12-07T04:08:33;25.80;;;16.60;;
4839;SDS011;2434;48.486;7.964;2022-12-07T04:11:02;22.87;;;16.27;;
4839;SDS011;2434;48.486;7.964;2022-12-07T04:13:30;23.87;;;15.40;;
4839;SDS011;2434;48.486;7.964;2022-12-07T04:16:20;24.40;;;15.83;;
4839;SDS011;2434;48.486;7.964;2022-12-07T04:18:48;22.30;;;15.83;;
4839;SDS011;2434;48.486;7.964;2022-12-07T04:21:16;28.73;;;16.37;;
4839;SDS011;2434;48.486;7.964;2022-12-07T04:23:44;22.63;;;15.40;;
4839;SDS011;2434;48.486;7.964;2022-12-07T04:26:13;26.17;;;15.93;;
4839;SDS011;2434;48.486;7.964;2022-12-07T04:28:41;23.30;;;14.40;;
4839;SDS011;2434;48.486;7.964;2022-12-07T04:31:09;24.23;;;14.67;;
4839;SDS011;2434;48.486;7.964;2022-12-07T04:33:39;20.10;;;13.53;;
4839;SDS011;2434;48.486;7.964;2022-12-07T04:36:07;23.87;;;14.83;;
4839;SDS011;2434;48.486;7.964;2022-12-07T04:38:35;21.90;;;13.10;;
4839;SDS011;2434;48.486;7.964;2022-12-07T04:41:04;21.47;;;12.90;;
4839;SDS011;2434;48.486;7.964;2022-12-07T04:43:33;20.60;;;11.67;;
4839;SDS011;2434;48.486;7.964;2022-12-07T04:46:01;20.27;;;12.63;;
4839;SDS011;2434;48.486;7.964;2022-12-07T04:48:30;20.67;;;13.20;;
4839;SDS011;2434;48.486;7.964;2022-12-07T04:50:59;20.10;;;13.67;;
4839;SDS011;2434;48.486;7.964;2022-12-07T04:53:30;21.27;;;12.67;;
4839;SDS011;2434;48.486;7.964;2022-12-07T04:55:58;21.10;;;13.60;;
4839;SDS011;2434;48.486;7.964;2022-12-07T04:58:27;18.63;;;13.17;;
4839;SDS011;2434;48.486;7.964;2022-12-07T05:00:55;20.30;;;13.33;;
4839;SDS011;2434;48.486;7.964;2022-12-07T05:03:23;18.23;;;11.73;;
4839;SDS011;2434;48.486;7.964;2022-12-07T05:05:51;21.27;;;12.13;;
4839;SDS011;2434;48.486;7.964;2022-12-07T05:08:21;17.73;;;11.80;;
4839;SDS011;2434;48.486;7.964;2022-12-07T05:10:49;17.60;;;11.90;;
4839;SDS011;2434;48.486;7.964;2022-12-07T05:13:17;18.93;;;12.20;;
4839;SDS011;2434;48.486;7.964;2022-12-07T05:15:46;17.17;;;11.67;;
4839;SDS011;2434;48.486;7.964;2022-12-07T05:18:14;18.33;;;11.53;;
4839;SDS011;2434;48.486;7.964;2022-12-07T05:20:43;21.27;;;13.00;;
4839;SDS011;2434;48.486;7.964;2022-12-07T05:23:12;19.13;;;12.23;;
4839;SDS011;2434;48.486;7.964;2022-12-07T05:25:42;18.90;;;12.40;;
4839;SDS011;2434;48.486;7.964;2022-12-07T05:28:10;21.47;;;13.10;;
4839;SDS011;2434;48.486;7.964;2022-12-07T05:30:38;19.87;;;12.67;;
4839;SDS011;2434;48.486;7.964;2022-12-07T05:33:07;19.63;;;13.87;;
4839;SDS011;2434;48.486;7.964;2022-12-07T05:35:35;31.23;;;15.00;;
4839;SDS011;2434;48.486;7.964;2022-12-07T05:38:04;23.13;;;13.33;;
4839;SDS011;2434;48.486;7.964;2022-12-07T05:40:32;20.60;;;13.47;;
4839;SDS011;2434;48.486;7.964;2022-12-07T05:43:01;21.53;;;13.67;;
4839;SDS011;2434;48.486;7.964;2022-12-07T05:45:30;23.60;;;15.03;;
4839;SDS011;2434;48.486;7.964;2022-12-07T05:47:58;23.27;;;14.47;;
4839;SDS011;2434;48.486;7.964;2022-12-07T05:50:27;21.70;;;13.60;;
4839;SDS011;2434;48.486;7.964;2022-12-07T05:53:01;18.90;;;12.47;;
4839;SDS011;2434;48.486;7.964;2022-12-07T05:55:29;20.40;;;14.10;;
4839;SDS011;2434;48.486;7.964;2022-12-07T05:57:57;26.30;;;14.80;;
4839;SDS011;2434;48.486;7.964;2022-12-07T06:00:44;22.27;;;14.10;;
4839;SDS011;2434;48.486;7.964;2022-12-07T06:03:16;17.77;;;12.50;;
4839;SDS011;2434;48.486;7.964;2022-12-07T06:05:45;20.13;;;13.17;;
4839;SDS011;2434;48.486;7.964;2022-12-07T06:08:13;17.00;;;11.53;;
4839;SDS011;2434;48.486;7.964;2022-12-07T06:10:41;16.37;;;9.17;;
4839;SDS011;2434;48.486;7.964;2022-12-07T06:13:09;13.47;;;8.43;;
4839;SDS011;2434;48.486;7.964;2022-12-07T06:15:37;13.27;;;8.23;;
4839;SDS011;2434;48.486;7.964;2022-12-07T06:18:06;14.90;;;8.30;;
4839;SDS011;2434;48.486;7.964;2022-12-07T06:20:35;12.23;;;8.27;;
4839;SDS011;2434;48.486;7.964;2022-12-07T06:23:03;15.20;;;9.00;;
4839;SDS011;2434;48.486;7.964;2022-12-07T06:25:31;12.10;;;9.20;;
4839;SDS011;2434;48.486;7.964;2022-12-07T06:27:59;14.73;;;10.53;;
4839;SDS011;2434;48.486;7.964;2022-12-07T06:30:27;16.83;;;11.63;;
4839;SDS011;2434;48.486;7.964;2022-12-07T06:32:55;18.83;;;12.47;;
4839;SDS011;2434;48.486;7.964;2022-12-07T06:35:25;18.40;;;12.00;;
4839;SDS011;2434;48.486;7.964;2022-12-07T06:37:53;18.23;;;11.87;;
4839;SDS011;2434;48.486;7.964;2022-12-07T06:40:21;20.33;;;13.80;;
4839;SDS011;2434;48.486;7.964;2022-12-07T06:42:49;22.07;;;12.90;;
4839;SDS011;2434;48.486;7.964;2022-12-07T06:45:17;23.40;;;11.67;;
4839;SDS011;2434;48.486;7.964;2022-12-07T06:47:46;19.77;;;13.57;;
4839;SDS011;2434;48.486;7.964;2022-12-07T06:50:14;18.57;;;12.40;;
4839;SDS011;2434;48.486;7.964;2022-12-07T06:52:43;14.50;;;10.60;;
4839;SDS011;2434;48.486;7.964;2022-12-07T06:55:12;18.23;;;10.50;;
4839;SDS011;2434;48.486;7.964;2022-12-07T06:57:40;14.93;;;10.37;;
4839;SDS011;2434;48.486;7.964;2022-12-07T07:00:09;12.63;;;9.23;;
4839;SDS011;2434;48.486;7.964;2022-12-07T07:02:45;14.43;;;10.00;;
4839;SDS011;2434;48.486;7.964;2022-12-07T07:05:13;14.47;;;9.70;;
4839;SDS011;2434;48.486;7.964;2022-12-07T07:07:42;14.50;;;10.37;;
4839;SDS011;2434;48.486;7.964;2022-12-07T07:10:31;12.60;;;9.10;;
4839;SDS011;2434;48.486;7.964;2022-12-07T07:12:59;11.30;;;8.60;;
4839;SDS011;2434;48.486;7.964;2022-12-07T07:15:27;14.20;;;8.80;;
4839;SDS011;2434;48.486;7.964;2022-12-07T07:17:55;13.47;;;9.53;;
4839;SDS011;2434;48.486;7.964;2022-12-07T07:20:31;15.17;;;10.20;;
4839;SDS011;2434;48.486;7.964;2022-12-07T07:23:01;15.53;;;10.20;;
4839;SDS011;2434;48.486;7.964;2022-12-07T07:25:29;19.90;;;10.83;;
4839;SDS011;2434;48.486;7.964;2022-12-07T07:27:57;12.97;;;9.47;;
4839;SDS011;2434;48.486;7.964;2022-12-07T07:30:25;16.20;;;9.80;;
4839;SDS011;2434;48.486;7.964;2022-12-07T07:32:55;17.07;;;10.50;;
4839;SDS011;2434;48.486;7.964;2022-12-07T07:35:24;22.30;;;13.20;;
4839;SDS011;2434;48.486;7.964;2022-12-07T07:37:52;23.23;;;15.43;;
4839;SDS011;2434;48.486;7.964;2022-12-07T07:40:22;26.47;;;16.67;;
4839;SDS011;2434;48.486;7.964;2022-12-07T07:42:51;23.53;;;14.50;;
4839;SDS011;2434;48.486;7.964;2022-12-07T07:45:21;22.47;;;14.33;;
4839;SDS011;2434;48.486;7.964;2022-12-07T07:47:50;19.33;;;12.27;;
4839;SDS011;2434;48.486;7.964;2022-12-07T07:50:19;21.93;;;11.20;;
4839;SDS011;2434;48.486;7.964;2022-12-07T07:52:48;16.70;;;10.60;;
4839;SDS011;2434;48.486;7.964;2022-12-07T07:55:16;18.50;;;10.77;;
4839;SDS011;2434;48.486;7.964;2022-12-07T07:57:46;18.23;;;12.50;;
4839;SDS011;2434;48.486;7.964;2022-12-07T08:00:20;17.30;;;12.80;;
4839;SDS011;2434;48.486;7.964;2022-12-07T08:02:49;19.57;;;11.80;;
4839;SDS011;2434;48.486;7.964;2022-12-07T08:05:18;18.13;;;12.37;;
4839;SDS011;2434;48.486;7.964;2022-12-07T08:07:46;17.23;;;11.63;;
4839;SDS011;2434;48.486;7.964;2022-12-07T08:10:14;21.37;;;14.70;;
4839;SDS011;2434;48.486;7.964;2022-12-07T08:12:43;18.50;;;12.83;;
4839;SDS011;2434;48.486;7.964;2022-12-07T08:15:30;22.80;;;14.37;;
4839;SDS011;2434;48.486;7.964;2022-12-07T08:17:59;20.27;;;14.17;;
4839;SDS011;2434;48.486;7.964;2022-12-07T08:20:29;19.27;;;13.00;;
4839;SDS011;2434;48.486;7.964;2022-12-07T08:22:58;20.30;;;13.57;;
4839;SDS011;2434;48.486;7.964;2022-12-07T08:25:26;22.00;;;12.40;;
4839;SDS011;2434;48.486;7.964;2022-12-07T08:27:54;22.00;;;12.53;;
4839;SDS011;2434;48.486;7.964;2022-12-07T08:30:23;18.40;;;12.80;;
4839;SDS011;2434;48.486;7.964;2022-12-07T08:32:52;20.43;;;14.00;;
4839;SDS011;2434;48.486;7.964;2022-12-07T08:35:20;21.50;;;14.77;;
4839;SDS011;2434;48.486;7.964;2022-12-07T08:37:49;21.93;;;14.43;;
4839;SDS011;2434;48.486;7.964;2022-12-07T08:40:17;24.93;;;15.70;;
4839;SDS011;2434;48.486;7.964;2022-12-07T08:42:50;22.57;;;15.10;;
4839;SDS011;2434;48.486;7.964;2022-12-07T08:45:19;24.17;;;17.80;;
4839;SDS011;2434;48.486;7.964;2022-12-07T08:47:55;28.43;;;19.23;;
4839;SDS011;2434;48.486;7.964;2022-12-07T08:50:27;25.70;;;18.07;;
4839;SDS011;2434;48.486;7.964;2022-12-07T08:52:57;26.97;;;19.00;;
4839;SDS011;2434;48.486;7.964;2022-12-07T08:55:26;31.37;;;20.33;;
4839;SDS011;2434;48.486;7.964;2022-12-07T08:57:56;32.70;;;20.80;;
4839;SDS011;2434;48.486;7.964;2022-12-07T09:00:25;30.93;;;20.40;;
4839;SDS011;2434;48.486;7.964;2022-12-07T09:02:55;24.87;;;17.80;;
4839;SDS011;2434;48.486;7.964;2022-12-07T09:05:23;20.27;;;14.23;;
4839;SDS011;2434;48.486;7.964;2022-12-07T09:07:54;17.50;;;11.40;;
4839;SDS011;2434;48.486;7.964;2022-12-07T09:10:25;18.60;;;12.73;;
4839;SDS011;2434;48.486;7.964;2022-12-07T09:12:53;15.07;;;11.23;;
4839;SDS011;2434;48.486;7.964;2022-12-07T09:15:21;13.70;;;10.33;;
4839;SDS011;2434;48.486;7.964;2022-12-07T09:17:49;16.40;;;11.00;;
4839;SDS011;2434;48.486;7.964;2022-12-07T09:20:20;16.83;;;12.17;;
4839;SDS011;2434;48.486;7.964;2022-12-07T09:22:53;14.87;;;11.67;;
4839;SDS011;2434;48.486;7.964;2022-12-07T09:25:22;15.33;;;10.37;;
4839;SDS011;2434;48.486;7.964;2022-12-07T09:27:54;13.53;;;10.07;;
4839;SDS011;2434;48.486;7.964;2022-12-07T09:30:23;16.87;;;11.53;;
4839;SDS011;2434;48.486;7.964;2022-12-07T09:32:52;23.57;;;12.77;;
4839;SDS011;2434;48.486;7.964;2022-12-07T09:35:23;16.37;;;10.17;;
4839;SDS011;2434;48.486;7.964;2022-12-07T09:37:52;22.73;;;15.47;;
4839;SDS011;2434;48.486;7.964;2022-12-07T09:40:21;18.73;;;12.03;;
4839;SDS011;2434;48.486;7.964;2022-12-07T09:42:51;19.57;;;12.40;;
4839;SDS011;2434;48.486;7.964;2022-12-07T09:45:23;16.07;;;9.70;;
4839;SDS011;2434;48.486;7.964;2022-12-07T09:47:53;17.10;;;11.03;;
4839;SDS011;2434;48.486;7.964;2022-12-07T09:50:23;18.77;;;12.60;;
4839;SDS011;2434;48.486;7.964;2022-12-07T09:52:53;16.60;;;11.07;;
4839;SDS011;2434;48.486;7.964;2022-12-07T09:55:30;19.40;;;11.60;;
4839;SDS011;2434;48.486;7.964;2022-12-07T09:57:59;19.50;;;12.27;;
4839;SDS011;2434;48.486;7.964;2022-12-07T10:00:28;18.87;;;10.90;;
4839;SDS011;2434;48.486;7.964;2022-12-07T10:02:57;15.87;;;11.00;;
4839;SDS011;2434;48.486;7.964;2022-12-07T10:05:28;15.87;;;11.97;;
4839;SDS011;2434;48.486;7.964;2022-12-07T10:08:00;14.67;;;10.90;;
4839;SDS011;2434;48.486;7.964;2022-12-07T10:10:29;15.73;;;11.67;;
4839;SDS011;2434;48.486;7.964;2022-12-07T10:13:04;17.30;;;11.20;;
4839;SDS011;2434;48.486;7.964;2022-12-07T10:15:43;20.37;;;10.63;;
4839;SDS011;2434;48.486;7.964;2022-12-07T10:18:18;14.73;;;10.07;;
4839;SDS011;2434;48.486;7.964;2022-12-07T10:20:49;16.60;;;10.60;;
4839;SDS011;2434;48.486;7.964;2022-12-07T10:23:29;18.40;;;11.33;;
4839;SDS011;2434;48.486;7.964;2022-12-07T10:25:58;22.33;;;13.67;;
4839;SDS011;2434;48.486;7.964;2022-12-07T10:28:33;16.20;;;10.77;;
4839;SDS011;2434;48.486;7.964;2022-12-07T10:31:15;20.60;;;11.67;;
4839;SDS011;2434;48.486;7.964;2022-12-07T10:33:48;19.00;;;12.60;;
4839;SDS011;2434;48.486;7.964;2022-12-07T10:36:21;17.40;;;11.90;;
4839;SDS011;2434;48.486;7.964;2022-12-07T10:38:52;18.87;;;13.23;;
4839;SDS011;2434;48.486;7.964;2022-12-07T10:41:25;22.47;;;13.13;;
4839;SDS011;2434;48.486;7.964;2022-12-07T10:43:54;19.50;;;11.73;;
4839;SDS011;2434;48.486;7.964;2022-12-07T10:50:01;17.43;;;11.87;;
4839;SDS011;2434;48.486;7.964;2022-12-07T10:52:54;19.33;;;12.30;;
4839;SDS011;2434;48.486;7.964;2022-12-07T10:55:58;17.20;;;11.63;;
4839;SDS011;2434;48.486;7.964;2022-12-07T10:58:44;18.63;;;13.00;;
4839;SDS011;2434;48.486;7.964;2022-12-07T11:01:25;20.10;;;12.63;;
4839;SDS011;2434;48.486;7.964;2022-12-07T11:04:08;14.73;;;10.80;;
4839;SDS011;2434;48.486;7.964;2022-12-07T11:06:48;16.40;;;11.17;;
4839;SDS011;2434;48.486;7.964;2022-12-07T11:09:29;17.27;;;11.13;;
4839;SDS011;2434;48.486;7.964;2022-12-07T11:12:33;18.47;;;12.20;;
4839;SDS011;2434;48.486;7.964;2022-12-07T11:15:22;18.43;;;12.83;;
4839;SDS011;2434;48.486;7.964;2022-12-07T11:17:57;19.40;;;13.10;;
4839;SDS011;2434;48.486;7.964;2022-12-07T11:20:39;16.43;;;11.57;;
4839;SDS011;2434;48.486;7.964;2022-12-07T11:23:16;17.20;;;12.10;;
4839;SDS011;2434;48.486;7.964;2022-12-07T11:25:54;17.50;;;11.93;;
4839;SDS011;2434;48.486;7.964;2022-12-07T11:28:37;18.77;;;14.00;;
4839;SDS011;2434;48.486;7.964;2022-12-07T11:31:22;22.90;;;14.20;;
4839;SDS011;2434;48.486;7.964;2022-12-07T11:33:57;18.20;;;11.53;;
4839;SDS011;2434;48.486;7.964;2022-12-07T11:36:33;23.17;;;14.47;;
4839;SDS011;2434;48.486;7.964;2022-12-07T11:39:08;17.00;;;12.20;;
4839;SDS011;2434;48.486;7.964;2022-12-07T11:41:56;17.73;;;13.37;;
4839;SDS011;2434;48.486;7.964;2022-12-07T11:44:31;18.27;;;12.10;;
4839;SDS011;2434;48.486;7.964;2022-12-07T11:47:05;18.07;;;11.67;;
4839;SDS011;2434;48.486;7.964;2022-12-07T11:49:40;16.67;;;11.57;;
4839;SDS011;2434;48.486;7.964;2022-12-07T11:52:14;22.20;;;13.03;;
4839;SDS011;2434;48.486;7.964;2022-12-07T11:54:48;21.10;;;13.10;;
4839;SDS011;2434;48.486;7.964;2022-12-07T11:57:22;20.20;;;11.70;;
4839;SDS011;2434;48.486;7.964;2022-12-07T11:59:56;18.70;;;12.10;;
4839;SDS011;2434;48.486;7.964;2022-12-07T12:02:31;18.73;;;12.40;;
4839;SDS011;2434;48.486;7.964;2022-12-07T12:05:05;17.17;;;11.43;;
4839;SDS011;2434;48.486;7.964;2022-12-07T12:07:42;19.17;;;12.87;;
4839;SDS011;2434;48.486;7.964;2022-12-07T12:10:36;18.33;;;12.00;;
4839;SDS011;2434;48.486;7.964;2022-12-07T12:13:21;17.93;;;11.70;;
4839;SDS011;2434;48.486;7.964;2022-12-07T12:16:39;15.20;;;10.43;;
4839;SDS011;2434;48.486;7.964;2022-12-07T12:19:25;15.63;;;10.23;;
4839;SDS011;2434;48.486;7.964;2022-12-07T12:22:02;17.23;;;10.83;;
4839;SDS011;2434;48.486;7.964;2022-12-07T12:24:35;16.00;;;11.00;;
4839;SDS011;2434;48.486;7.964;2022-12-07T12:27:08;16.73;;;10.20;;
4839;SDS011;2434;48.486;7.964;2022-12-07T12:29:45;16.90;;;11.67;;
4839;SDS011;2434;48.486;7.964;2022-12-07T12:32:22;16.10;;;11.17;;
4839;SDS011;2434;48.486;7.964;2022-12-07T12:35:02;17.97;;;11.43;;
4839;SDS011;2434;48.486;7.964;2022-12-07T12:37:46;16.20;;;11.57;;
4839;SDS011;2434;48.486;7.964;2022-12-07T12:46:44;14.63;;;10.50;;
4839;SDS011;2434;48.486;7.964;2022-12-07T12:55:44;14.33;;;10.30;;
4839;SDS011;2434;48.486;7.964;2022-12-07T12:58:38;15.13;;;10.27;;
4839;SDS011;2434;48.486;7.964;2022-12-07T13:04:17;13.23;;;9.97;;
4839;SDS011;2434;48.486;7.964;2022-12-07T13:06:51;14.40;;;10.30;;
4839;SDS011;2434;48.486;7.964;2022-12-07T13:09:21;18.60;;;10.20;;
4839;SDS011;2434;48.486;7.964;2022-12-07T13:11:55;14.20;;;9.77;;
4839;SDS011;2434;48.486;7.964;2022-12-07T13:14:43;13.40;;;9.57;;
4839;SDS011;2434;48.486;7.964;2022-12-07T13:23:30;15.73;;;10.50;;
4839;SDS011;2434;48.486;7.964;2022-12-07T13:26:02;16.93;;;11.17;;
4839;SDS011;2434;48.486;7.964;2022-12-07T13:28:43;15.10;;;10.93;;
4839;SDS011;2434;48.486;7.964;2022-12-07T13:31:23;14.03;;;9.70;;
4839;SDS011;2434;48.486;7.964;2022-12-07T13:34:05;13.23;;;8.97;;
4839;SDS011;2434;48.486;7.964;2022-12-07T13:36:53;15.30;;;10.20;;
4839;SDS011;2434;48.486;7.964;2022-12-07T13:39:22;15.50;;;9.60;;
4839;SDS011;2434;48.486;7.964;2022-12-07T13:41:52;12.30;;;8.47;;
4839;SDS011;2434;48.486;7.964;2022-12-07T13:44:23;15.70;;;9.43;;
4839;SDS011;2434;48.486;7.964;2022-12-07T13:46:54;14.23;;;10.10;;
4839;SDS011;2434;48.486;7.964;2022-12-07T13:49:29;14.37;;;9.43;;
4839;SDS011;2434;48.486;7.964;2022-12-07T13:52:13;14.67;;;10.20;;
4839;SDS011;2434;48.486;7.964;2022-12-07T13:54:43;14.03;;;9.07;;
4839;SDS011;2434;48.486;7.964;2022-12-07T13:57:12;15.00;;;9.60;;
4839;SDS011;2434;48.486;7.964;2022-12-07T13:59:41;13.67;;;9.40;;
4839;SDS011;2434;48.486;7.964;2022-12-07T14:02:17;13.20;;;10.03;;
4839;SDS011;2434;48.486;7.964;2022-12-07T14:04:49;15.70;;;10.63;;
4839;SDS011;2434;48.486;7.964;2022-12-07T14:07:20;19.00;;;11.60;;
4839;SDS011;2434;48.486;7.964;2022-12-07T14:09:55;16.93;;;10.47;;
4839;SDS011;2434;48.486;7.964;2022-12-07T14:12:25;19.67;;;11.03;;
4839;SDS011;2434;48.486;7.964;2022-12-07T14:14:56;15.80;;;10.80;;
4839;SDS011;2434;48.486;7.964;2022-12-07T14:17:26;15.30;;;10.10;;
4839;SDS011;2434;48.486;7.964;2022-12-07T14:19:57;13.10;;;10.33;;
4839;SDS011;2434;48.486;7.964;2022-12-07T14:22:32;13.43;;;9.60;;
4839;SDS011;2434;48.486;7.964;2022-12-07T14:27:55;12.87;;;9.90;;
4839;SDS011;2434;48.486;7.964;2022-12-07T14:30:26;13.37;;;9.10;;
4839;SDS011;2434;48.486;7.964;2022-12-07T14:32:57;17.47;;;10.57;;
4839;SDS011;2434;48.486;7.964;2022-12-07T14:35:28;12.97;;;9.27;;
4839;SDS011;2434;48.486;7.964;2022-12-07T14:37:57;15.30;;;10.80;;
4839;SDS011;2434;48.486;7.964;2022-12-07T14:40:26;14.43;;;10.63;;
4839;SDS011;2434;48.486;7.964;2022-12-07T14:42:57;15.67;;;10.90;;
4839;SDS011;2434;48.486;7.964;2022-12-07T14:45:28;14.20;;;9.70;;
4839;SDS011;2434;48.486;7.964;2022-12-07T14:47:57;15.70;;;9.83;;
4839;SDS011;2434;48.486;7.964;2022-12-07T14:50:48;13.83;;;9.97;;
4839;SDS011;2434;48.486;7.964;2022-12-07T14:53:39;12.47;;;9.33;;
4839;SDS011;2434;48.486;7.964;2022-12-07T14:56:11;16.50;;;9.37;;
4839;SDS011;2434;48.486;7.964;2022-12-07T14:58:39;16.37;;;11.07;;
4839;SDS011;2434;48.486;7.964;2022-12-07T15:01:08;13.00;;;9.40;;
4839;SDS011;2434;48.486;7.964;2022-12-07T15:03:36;15.10;;;9.60;;
4839;SDS011;2434;48.486;7.964;2022-12-07T15:06:06;14.70;;;9.83;;
4839;SDS011;2434;48.486;7.964;2022-12-07T15:08:35;16.00;;;9.97;;
4839;SDS011;2434;48.486;7.964;2022-12-07T15:11:03;14.63;;;10.63;;
4839;SDS011;2434;48.486;7.964;2022-12-07T15:13:31;18.23;;;12.03;;
4839;SDS011;2434;48.486;7.964;2022-12-07T15:16:18;18.10;;;12.07;;
4839;SDS011;2434;48.486;7.964;2022-12-07T15:18:48;14.23;;;10.97;;
4839;SDS011;2434;48.486;7.964;2022-12-07T15:21:38;15.73;;;11.63;;
4839;SDS011;2434;48.486;7.964;2022-12-07T15:24:07;15.90;;;11.10;;
4839;SDS011;2434;48.486;7.964;2022-12-07T15:26:37;17.03;;;11.47;;
4839;SDS011;2434;48.486;7.964;2022-12-07T15:29:06;19.90;;;11.90;;
4839;SDS011;2434;48.486;7.964;2022-12-07T15:31:35;15.40;;;11.50;;
4839;SDS011;2434;48.486;7.964;2022-12-07T15:34:21;19.40;;;11.70;;
4839;SDS011;2434;48.486;7.964;2022-12-07T15:36:52;17.70;;;11.67;;
4839;SDS011;2434;48.486;7.964;2022-12-07T15:39:20;18.47;;;11.70;;
4839;SDS011;2434;48.486;7.964;2022-12-07T15:41:49;20.70;;;11.63;;
4839;SDS011;2434;48.486;7.964;2022-12-07T15:44:17;21.20;;;12.50;;
4839;SDS011;2434;48.486;7.964;2022-12-07T15:47:03;21.83;;;12.13;;
4839;SDS011;2434;48.486;7.964;2022-12-07T15:49:32;19.40;;;12.80;;
4839;SDS011;2434;48.486;7.964;2022-12-07T15:52:01;19.53;;;12.07;;